Time;durP1;ratioP1;P1;durP2;ratioP2;P2;SDS_P1;SDS_P2;PMS_P1;PMS_P2;Temp;Humidity;BMP_temperature;BMP_pressure;BME280_temperature;BME280_humidity;BME280_pressure;Samples;Min_cycle;Max_cycle;Signal;HPM_P1;HPM_P2
2022/03/23 00:02:12;;;;;;;20.70;7.18;;;;;;;9.73;58.23;103118.75;5074686;27;121185;-36
2022/03/23 00:04:39;;;;;;;16.50;6.70;;;;;;;9.63;57.88;103107.25;5075335;27;96772;-37
2022/03/23 00:07:04;;;;;;;18.85;6.93;;;;;;;9.62;58.41;103108.16;5078480;27;96781;-36
2022/03/23 00:09:29;;;;;;;18.73;7.90;;;;;;;9.58;58.40;103106.44;5096107;27;97947;-37
2022/03/23 00:11:55;;;;;;;18.02;7.20;;;;;;;9.61;58.53;103110.91;5076860;27;120878;-36
2022/03/23 00:14:20;;;;;;;19.55;7.20;;;;;;;9.52;58.73;103109.28;5095322;27;116771;-36
2022/03/23 00:16:45;;;;;;;20.48;7.95;;;;;;;9.54;58.62;103099.31;5096199;27;99005;-36
2022/03/23 00:19:11;;;;;;;14.85;6.60;;;;;;;9.51;58.51;103102.06;5095982;27;97883;-36
2022/03/23 00:21:37;;;;;;;17.95;6.63;;;;;;;9.52;57.87;103098.47;5102655;27;97681;-36
2022/03/23 00:24:03;;;;;;;17.48;7.40;;;;;;;9.55;58.09;103112.78;5083732;27;96613;-36
2022/03/23 00:26:29;;;;;;;15.93;7.13;;;;;;;9.44;58.66;103097.72;5084256;27;96971;-36
2022/03/23 00:28:54;;;;;;;15.88;7.50;;;;;;;9.44;59.03;103104.03;5102450;27;99169;-36
2022/03/23 00:31:20;;;;;;;17.38;6.80;;;;;;;9.40;58.64;103096.91;5102505;27;97827;-36
2022/03/23 00:33:47;;;;;;;18.25;7.38;;;;;;;9.43;58.99;103113.06;5102640;27;96741;-36
2022/03/23 00:36:12;;;;;;;20.55;7.03;;;;;;;9.33;59.70;103108.75;5084314;27;96762;-36
2022/03/23 00:38:38;;;;;;;19.10;6.88;;;;;;;9.32;59.61;103116.00;5102324;27;99210;-37
2022/03/23 00:41:04;;;;;;;16.50;7.38;;;;;;;9.25;59.73;103106.22;5102591;27;99564;-36
2022/03/23 00:43:29;;;;;;;18.45;7.18;;;;;;;9.21;59.37;103103.59;5083888;27;96583;-36
2022/03/23 00:45:55;;;;;;;17.00;7.57;;;;;;;9.16;59.84;103097.41;5102854;27;96740;-36
2022/03/23 00:48:20;;;;;;;18.67;7.90;;;;;;;9.21;59.32;103107.19;5101714;27;97420;-36
2022/03/23 00:50:46;;;;;;;17.08;6.85;;;;;;;9.19;58.59;103109.03;5102403;27;97888;-36
2022/03/23 00:53:12;;;;;;;16.70;7.32;;;;;;;9.14;59.42;103102.81;5102683;27;96596;-36
2022/03/23 00:55:40;;;;;;;15.13;6.75;;;;;;;9.09;59.91;103097.50;5102672;27;96819;-36
2022/03/23 00:58:05;;;;;;;13.50;7.05;;;;;;;9.02;59.57;103098.53;5083405;27;99648;-36
2022/03/23 01:00:30;;;;;;;15.90;7.50;;;;;;;9.00;60.21;103094.97;5101299;27;126404;-37
2022/03/23 01:02:56;;;;;;;15.02;7.55;;;;;;;8.98;60.19;103099.50;5101862;27;102494;-36
2022/03/23 01:05:21;;;;;;;18.98;7.30;;;;;;;9.00;59.89;103107.59;5102592;27;96730;-36
2022/03/23 01:07:47;;;;;;;14.55;6.75;;;;;;;8.97;59.88;103110.38;5101589;27;99587;-36
2022/03/23 01:10:14;;;;;;;12.18;6.05;;;;;;;8.92;59.73;103105.03;5102043;27;99131;-36
2022/03/23 01:12:41;;;;;;;12.57;5.90;;;;;;;8.91;60.19;103106.88;5083055;27;96578;-37
2022/03/23 01:15:09;;;;;;;16.00;5.65;;;;;;;8.86;60.00;103100.63;5102209;27;96678;-36
2022/03/23 01:17:36;;;;;;;12.10;6.50;;;;;;;8.85;59.70;103104.25;5083301;27;100836;-36
2022/03/23 01:20:03;;;;;;;16.42;6.78;;;;;;;8.82;60.01;103103.41;5083223;27;100806;-36
2022/03/23 01:22:28;;;;;;;20.42;7.72;;;;;;;8.77;60.39;103103.50;5083528;27;96638;-37
2022/03/23 01:24:53;;;;;;;17.60;6.68;;;;;;;8.77;60.60;103098.09;5083576;27;96810;-36
2022/03/23 01:27:19;;;;;;;13.32;6.70;;;;;;;8.65;60.44;103083.00;5100885;27;126641;-36
2022/03/23 01:29:44;;;;;;;15.63;5.53;;;;;;;8.64;61.84;103088.41;5102374;27;97748;-36
2022/03/23 01:32:10;;;;;;;15.52;5.45;;;;;;;8.61;60.99;103093.88;5098795;27;96618;-37
2022/03/23 01:34:35;;;;;;;15.65;7.13;;;;;;;8.55;61.25;103085.88;5098867;27;96742;-36
2022/03/23 01:37:01;;;;;;;11.75;6.32;;;;;;;8.53;60.89;103085.00;5079134;27;99661;-36
2022/03/23 01:39:27;;;;;;;14.82;6.68;;;;;;;8.50;61.25;103091.34;5079567;27;100946;-37
2022/03/23 01:41:52;;;;;;;19.63;7.50;;;;;;;8.48;60.81;103091.38;5098418;27;96496;-37
2022/03/23 01:44:23;;;;;;;15.82;6.90;;;;;;;8.45;61.48;103088.72;5098352;27;96816;-37
2022/03/23 01:47:03;;;;;;;17.98;7.70;;;;;;;8.41;61.19;103096.91;5079574;27;101027;-37
2022/03/23 01:49:29;;;;;;;14.50;7.03;;;;;;;8.36;61.18;103094.25;5098251;27;98066;-37
2022/03/23 01:51:55;;;;;;;14.52;7.22;;;;;;;8.31;62.14;103088.03;5079688;27;96517;-36
2022/03/23 01:54:20;;;;;;;12.63;6.63;;;;;;;8.35;60.80;103087.06;5080050;27;96783;-36
2022/03/23 01:56:48;;;;;;;14.15;6.65;;;;;;;8.35;60.52;103091.59;5079313;27;100547;-36
2022/03/23 01:59:14;;;;;;;16.20;6.55;;;;;;;8.32;60.83;103095.22;5079240;27;100944;-36
2022/03/23 02:01:40;;;;;;;19.95;7.65;;;;;;;8.34;60.33;103092.47;5079006;27;97695;-37
2022/03/23 02:04:05;;;;;;;23.92;8.52;;;;;;;8.30;60.52;103084.44;5097942;27;96897;-36
2022/03/23 02:06:31;;;;;;;14.82;7.30;;;;;;;8.29;61.05;103087.16;5098029;27;98016;-36
2022/03/23 02:08:57;;;;;;;17.38;8.20;;;;;;;8.19;61.34;103080.13;5079002;27;100981;-36
2022/03/23 02:11:24;;;;;;;26.38;7.03;;;;;;;8.16;60.55;103072.97;5098182;27;96557;-36
2022/03/23 02:13:49;;;;;;;12.88;6.00;;;;;;;8.19;61.08;103082.81;5079227;27;96767;-37
2022/03/23 02:16:15;;;;;;;19.50;6.35;;;;;;;8.10;61.21;103081.16;5097713;27;96904;-36
2022/03/23 02:18:40;;;;;;;15.63;8.13;;;;;;;8.02;60.99;103067.78;5097985;27;98830;-36
2022/03/23 02:21:05;;;;;;;24.30;8.13;;;;;;;8.07;60.97;103082.09;5097007;27;116800;-36
2022/03/23 02:23:31;;;;;;;14.25;7.07;;;;;;;8.09;61.01;103088.34;5098055;27;96746;-36
2022/03/23 02:26:01;;;;;;;14.32;6.50;;;;;;;8.01;61.25;103074.09;5097159;27;97897;-36
2022/03/23 02:28:28;;;;;;;14.20;6.20;;;;;;;8.00;60.61;103076.81;5078828;27;100733;-36
2022/03/23 02:30:54;;;;;;;17.33;7.65;;;;;;;7.98;60.76;103065.16;5079253;27;96667;-36
2022/03/23 02:33:20;;;;;;;14.73;6.93;;;;;;;8.00;61.44;103084.91;5097485;27;96897;-36
2022/03/23 02:35:48;;;;;;;19.73;7.53;;;;;;;7.93;61.59;103073.31;5078598;27;101529;-36
2022/03/23 02:38:13;;;;;;;19.58;7.00;;;;;;;7.95;61.56;103090.38;5078806;27;100913;-36
2022/03/23 02:40:39;;;;;;;13.93;5.80;;;;;;;7.94;61.45;103088.59;5097806;27;96599;-37
2022/03/23 02:43:04;;;;;;;21.40;7.45;;;;;;;7.91;61.59;103083.22;5096698;27;117314;-37
2022/03/23 02:45:29;;;;;;;14.05;7.13;;;;;;;7.87;61.33;103078.81;5096715;27;124256;-36
2022/03/23 02:47:56;;;;;;;11.93;5.43;;;;;;;7.83;61.17;103075.25;5097281;27;97820;-36
2022/03/23 02:50:22;;;;;;;16.00;6.97;;;;;;;7.81;61.05;103079.75;5097039;27;96554;-36
2022/03/23 03:04:07;;;;;;;11.45;4.85;;;;;;;7.53;62.27;103068.47;5097393;27;96844;-36
2022/03/23 03:06:32;;;;;;;12.73;5.32;;;;;;;7.58;63.00;103087.28;5096695;27;99934;-36
2022/03/23 03:08:57;;;;;;;13.27;7.32;;;;;;;7.54;62.01;103080.16;5097212;27;97820;-36
2022/03/23 03:11:23;;;;;;;15.77;6.28;;;;;;;7.48;62.11;103075.72;5097032;27;96564;-36
2022/03/23 03:13:49;;;;;;;14.05;6.65;;;;;;;7.45;62.70;103073.06;5097160;27;96952;-36
2022/03/23 03:16:16;;;;;;;21.48;6.22;;;;;;;7.40;62.36;103077.63;5077448;27;100929;-37
2022/03/23 03:18:41;;;;;;;17.10;7.03;;;;;;;7.37;62.09;103077.69;5077978;27;100783;-36
2022/03/23 03:21:08;;;;;;;16.35;7.47;;;;;;;7.37;62.63;103091.16;5096391;27;102851;-36
2022/03/23 03:23:36;;;;;;;15.23;7.45;;;;;;;7.34;62.91;103083.09;5078267;27;96879;-37
2022/03/23 03:26:05;;;;;;;14.50;7.07;;;;;;;7.26;63.33;103075.09;5078038;27;102798;-36
2022/03/23 03:28:30;;;;;;;12.02;6.22;;;;;;;7.27;63.14;103084.06;5096330;27;99539;-36
2022/03/23 03:30:56;;;;;;;14.73;6.80;;;;;;;7.22;63.09;103081.41;5096829;27;96439;-36
2022/03/23 03:33:21;;;;;;;15.50;6.10;;;;;;;7.22;63.03;103092.19;5097139;27;96726;-36
2022/03/23 03:35:46;;;;;;;15.07;5.93;;;;;;;7.19;63.07;103094.94;5095854;27;120200;-36
2022/03/23 03:38:12;;;;;;;10.77;5.90;;;;;;;7.10;63.83;103085.16;5095355;27;127331;-37
2022/03/23 03:40:37;;;;;;;17.70;7.63;;;;;;;7.13;64.28;103095.03;5096393;27;96506;-36
2022/03/23 03:43:02;;;;;;;12.75;6.70;;;;;;;7.06;63.54;103082.53;5096444;27;96826;-36
2022/03/23 03:45:28;;;;;;;16.80;5.93;;;;;;;7.02;63.44;103084.34;5096032;27;105527;-36
2022/03/23 03:47:53;;;;;;;22.98;6.75;;;;;;;7.05;64.09;103096.91;5095823;27;107325;-36
2022/03/23 03:50:18;;;;;;;10.45;5.65;;;;;;;6.97;63.61;103084.41;5096290;27;105779;-37
2022/03/23 03:52:43;;;;;;;14.38;6.95;;;;;;;6.95;62.92;103093.41;5095429;27;116481;-37
2022/03/23 03:55:09;;;;;;;14.95;6.55;;;;;;;6.94;64.09;103095.22;5094651;27;126950;-36
2022/03/23 03:57:34;;;;;;;21.48;6.47;;;;;;;6.89;63.92;103091.69;5095553;27;126819;-36
2022/03/23 03:59:59;;;;;;;14.40;7.30;;;;;;;6.94;64.08;103094.31;5095440;27;115838;-36
2022/03/23 04:02:24;;;;;;;11.68;5.75;;;;;;;6.91;64.40;103095.25;5095662;27;116488;-36
2022/03/23 04:04:50;;;;;;;15.55;6.03;;;;;;;6.83;64.07;103090.84;5094505;27;123290;-37
2022/03/23 04:07:15;;;;;;;14.60;5.75;;;;;;;6.78;64.40;103091.78;5094566;27;127293;-36
2022/03/23 04:09:40;;;;;;;13.88;5.78;;;;;;;6.77;63.77;103092.69;5096169;27;96595;-37
2022/03/23 04:12:06;;;;;;;14.00;7.10;;;;;;;6.76;64.12;103096.28;5077678;27;96876;-36
2022/03/23 04:14:32;;;;;;;15.68;6.80;;;;;;;6.79;63.89;103101.66;5095824;27;97975;-37
2022/03/23 04:16:57;;;;;;;15.40;5.85;;;;;;;6.72;64.47;103099.91;5096074;27;97225;-36
2022/03/23 04:19:22;;;;;;;14.07;5.93;;;;;;;6.69;64.32;103094.53;5095979;27;96480;-36
2022/03/23 04:21:47;;;;;;;11.05;5.50;;;;;;;6.62;64.30;103100.88;5095882;27;114152;-36
2022/03/23 04:24:13;;;;;;;12.40;5.50;;;;;;;6.66;65.10;103099.09;5095702;27;101600;-37
2022/03/23 04:26:38;;;;;;;16.17;7.25;;;;;;;6.59;63.99;103096.44;5095895;27;97844;-37
2022/03/23 04:29:03;;;;;;;12.25;6.47;;;;;;;6.64;64.77;103111.66;5095542;27;96522;-36
2022/03/23 04:31:29;;;;;;;12.93;5.80;;;;;;;6.57;64.27;103105.44;5095251;27;113118;-36
2022/03/23 04:33:54;;;;;;;19.30;6.40;;;;;;;6.49;64.17;103100.13;5094769;27;125302;-37
2022/03/23 04:36:20;;;;;;;15.23;6.65;;;;;;;6.55;64.79;103113.53;5095648;27;97803;-37
2022/03/23 04:38:45;;;;;;;14.55;6.47;;;;;;;6.43;64.76;103101.97;5095715;27;96467;-36
2022/03/23 04:41:10;;;;;;;10.95;6.38;;;;;;;6.42;64.29;103100.19;5094941;27;110190;-36
2022/03/23 04:43:38;;;;;;;15.95;6.50;;;;;;;6.41;64.38;103098.38;5094914;27;99338;-37
2022/03/23 04:46:04;;;;;;;12.85;5.38;;;;;;;6.35;64.77;103093.94;5095838;27;99209;-36
2022/03/23 04:48:29;;;;;;;17.13;8.52;;;;;;;6.32;65.43;103108.31;5077122;27;96691;-36
2022/03/23 04:50:54;;;;;;;14.90;6.60;;;;;;;6.33;65.75;103118.16;5094839;27;114783;-36
2022/03/23 04:53:20;;;;;;;16.98;5.40;;;;;;;6.25;65.45;103111.97;5094936;27;97816;-37
2022/03/23 04:55:45;;;;;;;11.15;6.47;;;;;;;6.27;65.53;103106.53;5095525;27;97776;-36
2022/03/23 04:58:10;;;;;;;14.30;6.85;;;;;;;6.29;64.93;103124.50;5094956;27;108719;-36
2022/03/23 05:00:36;;;;;;;11.95;6.18;;;;;;;6.26;64.88;103131.69;5095607;27;96774;-36
2022/03/23 05:03:03;;;;;;;14.63;7.03;;;;;;;6.21;65.44;103129.03;5095304;27;97497;-36
2022/03/23 05:05:28;;;;;;;15.65;6.00;;;;;;;6.19;65.19;103127.25;5076470;27;100795;-36
2022/03/23 05:07:54;;;;;;;12.55;5.97;;;;;;;6.16;65.28;103131.75;5097173;27;96726;-36
2022/03/23 05:10:19;;;;;;;14.43;5.13;;;;;;;6.14;65.55;103136.22;5099707;27;96729;-37
2022/03/23 05:12:45;;;;;;;11.82;5.55;;;;;;;6.13;65.52;103130.88;5097592;27;116525;-36
2022/03/23 05:15:14;;;;;;;16.60;6.28;;;;;;;6.00;65.22;103119.28;5079919;27;100902;-36
2022/03/23 05:17:40;;;;;;;13.20;6.05;;;;;;;6.06;65.63;103131.81;5098369;27;96552;-37
2022/03/23 05:20:07;;;;;;;9.00;5.75;;;;;;;6.03;65.41;103131.81;5080201;27;96611;-37
2022/03/23 05:22:32;;;;;;;29.00;7.07;;;;;;;5.95;66.29;103122.00;5079907;27;102542;-37
2022/03/23 05:24:58;;;;;;;12.80;6.05;;;;;;;5.93;65.99;103126.50;5098335;27;99416;-36
2022/03/23 05:27:24;;;;;;;12.93;6.40;;;;;;;5.90;66.45;103120.22;5098818;27;96568;-36
2022/03/23 05:29:50;;;;;;;11.57;6.60;;;;;;;5.94;66.75;103136.38;5098811;27;96839;-36
2022/03/23 05:32:18;;;;;;;15.77;6.05;;;;;;;5.90;66.31;103134.53;5098500;27;97925;-37
2022/03/23 05:34:44;;;;;;;13.07;6.97;;;;;;;5.88;66.07;103136.34;5080132;27;100920;-37
2022/03/23 05:37:11;;;;;;;13.98;7.10;;;;;;;5.86;66.47;103142.63;5080036;27;96656;-36
2022/03/23 05:39:37;;;;;;;14.82;7.30;;;;;;;5.82;66.37;103144.47;5080077;27;96880;-37
2022/03/23 05:42:03;;;;;;;16.45;7.18;;;;;;;5.73;66.49;103118.50;5078937;27;100209;-37
2022/03/23 05:44:29;;;;;;;13.00;6.00;;;;;;;5.76;66.14;103128.34;5079281;27;100986;-37
2022/03/23 05:46:54;;;;;;;17.30;5.78;;;;;;;5.74;66.62;103122.06;5098539;27;96675;-36
2022/03/23 05:49:19;;;;;;;10.20;6.50;;;;;;;5.77;66.75;103137.28;5097642;27;116422;-36
2022/03/23 05:51:44;;;;;;;12.20;5.72;;;;;;;5.69;66.48;103119.41;5097981;27;99537;-36
2022/03/23 05:54:10;;;;;;;10.57;5.65;;;;;;;5.73;66.56;103134.63;5097647;27;109746;-36
2022/03/23 05:56:35;;;;;;;9.30;5.03;;;;;;;5.65;67.19;103132.88;5097636;27;107228;-36
2022/03/23 05:59:00;;;;;;;15.95;7.65;;;;;;;5.70;66.52;103136.47;5098897;27;96714;-36
2022/03/23 06:01:26;;;;;;;10.15;5.43;;;;;;;5.71;65.98;103138.22;5096683;27;127774;-37
2022/03/23 06:03:51;;;;;;;12.23;5.53;;;;;;;5.67;66.66;103140.06;5097392;27;105775;-36
2022/03/23 06:06:17;;;;;;;10.13;5.40;;;;;;;5.68;66.94;103143.63;5097906;27;96515;-36
2022/03/23 06:08:42;;;;;;;14.65;6.20;;;;;;;5.68;67.55;103154.38;5079206;27;96919;-36
2022/03/23 06:11:09;;;;;;;12.90;6.20;;;;;;;5.64;67.17;103156.19;5097423;27;99075;-36
2022/03/23 06:13:34;;;;;;;16.75;5.88;;;;;;;5.69;67.57;103164.22;5097115;27;117794;-36
2022/03/23 06:15:59;;;;;;;15.43;6.13;;;;;;;5.69;66.84;103159.72;5097156;27;116901;-36
2022/03/23 06:18:24;;;;;;;17.33;7.32;;;;;;;5.66;66.86;103143.63;5097413;27;96831;-37
2022/03/23 06:20:50;;;;;;;19.65;7.00;;;;;;;5.75;65.83;103153.47;5097502;27;98939;-36
2022/03/23 06:23:15;;;;;;;14.52;6.25;;;;;;;5.79;65.66;103157.91;5097878;27;98985;-36
2022/03/23 06:25:40;;;;;;;17.63;5.53;;;;;;;5.89;65.94;103172.22;5096682;27;117013;-37
2022/03/23 06:28:06;;;;;;;12.85;6.35;;;;;;;5.87;66.17;103172.22;5097851;27;96783;-36
2022/03/23 06:30:31;;;;;;;10.18;5.10;;;;;;;5.86;65.66;103165.03;5097177;27;97383;-37
2022/03/23 06:32:56;;;;;;;13.70;6.07;;;;;;;5.88;66.51;103152.47;5097373;27;97956;-36
2022/03/23 06:35:22;;;;;;;16.17;6.28;;;;;;;5.95;65.36;103165.03;5096743;27;114040;-36
2022/03/23 06:37:47;;;;;;;17.48;7.25;;;;;;;6.02;65.28;103175.78;5079013;27;96774;-36
2022/03/23 06:40:13;;;;;;;12.75;6.85;;;;;;;6.03;65.36;103164.09;5096827;27;108723;-37
2022/03/23 06:42:38;;;;;;;17.20;7.38;;;;;;;6.13;64.79;103173.94;5095785;27;127797;-36
2022/03/23 06:45:04;;;;;;;11.73;6.68;;;;;;;6.17;64.44;103175.69;5096820;27;117151;-36
2022/03/23 06:47:30;;;;;;;13.02;6.30;;;;;;;6.21;64.07;103166.69;5079124;27;97893;-37
2022/03/23 06:49:56;;;;;;;15.90;6.13;;;;;;;6.30;64.46;103163.06;5097222;27;97896;-36
2022/03/23 06:52:21;;;;;;;13.80;7.18;;;;;;;6.41;63.59;103168.38;5097118;27;97416;-37
2022/03/23 06:54:48;;;;;;;13.85;6.25;;;;;;;6.61;63.84;103179.00;5096937;27;96494;-36
2022/03/23 06:57:13;;;;;;;17.38;6.88;;;;;;;6.69;63.62;103159.19;5078721;27;96841;-36
2022/03/23 06:59:39;;;;;;;16.38;6.18;;;;;;;6.93;63.07;103176.94;5078367;27;97963;-36
2022/03/23 07:02:05;;;;;;;9.30;5.40;;;;;;;7.09;63.42;103180.38;5096250;27;111975;-36
2022/03/23 07:04:30;;;;;;;21.98;9.50;;;;;;;7.21;62.48;103155.13;5078545;27;96547;-36
2022/03/23 07:06:56;;;;;;;13.98;6.93;;;;;;;7.50;62.27;103178.19;5096770;27;96777;-36
2022/03/23 07:09:33;;;;;;;12.25;6.18;;;;;;;7.65;61.96;103170.81;5095811;27;126550;-36
2022/03/23 07:12:07;;;;;;;18.83;7.30;;;;;;;7.95;61.56;103176.72;5078502;27;100795;-36
2022/03/23 07:14:35;;;;;;;13.73;6.63;;;;;;;8.12;61.35;103176.50;5078584;27;96624;-36
2022/03/23 07:17:01;;;;;;;21.90;8.98;;;;;;;8.30;60.67;103184.34;5078414;27;96764;-36
2022/03/23 07:19:27;;;;;;;19.13;8.20;;;;;;;8.42;60.54;103172.50;5077656;27;100741;-36
2022/03/23 07:21:53;;;;;;;18.58;7.63;;;;;;;8.62;60.03;103183.00;5095971;27;99125;-36
2022/03/23 07:24:19;;;;;;;17.38;7.88;;;;;;;8.85;59.67;103192.56;5078343;27;96792;-36
2022/03/23 07:26:45;;;;;;;17.27;8.13;;;;;;;8.95;59.40;103187.88;5078415;27;96911;-36
2022/03/23 07:29:11;;;;;;;18.65;6.85;;;;;;;9.12;58.98;103191.19;5095360;27;97930;-36
2022/03/23 07:31:36;;;;;;;22.30;8.38;;;;;;;9.30;58.86;103188.16;5096335;27;97818;-36
2022/03/23 07:34:02;;;;;;;23.35;8.38;;;;;;;9.46;58.06;103194.16;5095787;27;96595;-36
2022/03/23 07:36:28;;;;;;;18.42;7.38;;;;;;;9.64;57.87;103195.59;5076427;27;97166;-37
2022/03/23 07:38:54;;;;;;;18.10;7.65;;;;;;;9.72;57.42;103185.50;5076013;27;101019;-36
2022/03/23 07:41:20;;;;;;;13.68;6.63;;;;;;;9.86;56.72;103181.63;5078043;27;97871;-36
2022/03/23 07:43:45;;;;;;;14.90;6.63;;;;;;;10.08;56.95;103195.59;5096019;27;96568;-36
2022/03/23 07:46:10;;;;;;;17.15;7.70;;;;;;;10.17;56.78;103190.88;5096715;27;96772;-36
2022/03/23 07:48:36;;;;;;;21.13;7.60;;;;;;;10.38;56.45;103185.94;5096425;27;97845;-36
2022/03/23 07:51:02;;;;;;;19.80;8.15;;;;;;;10.54;56.04;103191.91;5095076;27;124289;-36
2022/03/23 07:53:27;;;;;;;18.23;8.40;;;;;;;10.69;55.27;103194.22;5096438;27;96640;-36
2022/03/23 07:55:52;;;;;;;14.85;7.00;;;;;;;10.87;54.59;103201.03;5095831;27;116703;-37
2022/03/23 07:58:17;;;;;;;22.13;6.50;;;;;;;10.95;53.67;103196.31;5095593;27;116231;-36
2022/03/23 08:00:43;;;;;;;31.45;8.40;;;;;;;11.14;54.01;103201.25;5096495;27;97838;-37
2022/03/23 08:03:10;;;;;;;15.90;6.72;;;;;;;11.31;54.35;103204.41;5095858;27;96678;-36
2022/03/23 08:05:37;;;;;;;20.63;7.82;;;;;;;11.44;53.37;103202.25;5077457;27;96859;-36
2022/03/23 08:08:03;;;;;;;24.70;9.43;;;;;;;11.56;53.28;103209.16;5076484;27;101150;-37
2022/03/23 08:10:28;;;;;;;23.73;7.15;;;;;;;11.58;53.27;103201.88;5095885;27;99673;-37
2022/03/23 08:12:53;;;;;;;22.77;7.18;;;;;;;11.62;52.25;103198.13;5095079;27;117241;-36
2022/03/23 08:15:19;;;;;;;17.42;6.97;;;;;;;11.78;51.98;103213.06;5096142;27;96784;-37
2022/03/23 08:17:44;;;;;;;22.52;8.63;;;;;;;11.85;52.22;103201.09;5095878;27;98011;-36
2022/03/23 08:22:56;;;;;;;18.75;6.70;;;;;;;11.88;52.25;103205.56;5096581;27;96845;-36
2022/03/23 08:25:22;;;;;;;17.80;7.45;;;;;;;11.97;52.15;103205.31;5096436;27;96842;-36
2022/03/23 08:27:47;;;;;;;22.60;8.15;;;;;;;12.02;51.80;103210.59;5095901;27;97801;-36
2022/03/23 08:30:13;;;;;;;19.33;8.18;;;;;;;12.05;51.86;103207.78;5095832;27;97905;-36
2022/03/23 08:32:38;;;;;;;20.33;7.80;;;;;;;12.06;52.03;103209.56;5095565;27;96596;-36
2022/03/23 08:35:04;;;;;;;22.13;7.65;;;;;;;12.00;51.76;103201.59;5095429;27;100024;-36
2022/03/23 08:37:30;;;;;;;26.45;7.80;;;;;;;12.02;51.60;103207.91;5095834;27;97400;-36
2022/03/23 08:39:55;;;;;;;18.70;8.10;;;;;;;11.93;51.96;103203.63;5095523;27;99120;-36
2022/03/23 08:42:21;;;;;;;23.75;8.30;;;;;;;11.80;52.45;103203.06;5099012;27;96401;-36
2022/03/23 08:44:46;;;;;;;23.98;8.27;;;;;;;11.77;52.64;103213.97;5098636;27;115347;-36
2022/03/23 08:47:12;;;;;;;18.05;8.48;;;;;;;11.62;52.68;103196.31;5098241;27;125663;-36
2022/03/23 08:49:38;;;;;;;19.60;7.80;;;;;;;11.53;52.25;103202.00;5099199;27;99362;-37
2022/03/23 08:52:04;;;;;;;26.65;9.38;;;;;;;11.46;52.79;103198.59;5080608;27;96624;-37
2022/03/23 08:54:30;;;;;;;26.75;8.93;;;;;;;11.49;52.74;103200.31;5080741;27;96947;-36
2022/03/23 08:56:56;;;;;;;24.00;9.35;;;;;;;11.48;52.75;103203.94;5077636;27;100288;-37
2022/03/23 08:59:21;;;;;;;22.30;9.25;;;;;;;11.44;53.12;103203.16;5097652;27;97954;-37
2022/03/23 09:01:47;;;;;;;23.92;9.65;;;;;;;11.39;52.99;103196.06;5098540;27;97092;-37
2022/03/23 09:04:12;;;;;;;22.98;9.27;;;;;;;11.42;53.41;103205.03;5080118;27;97082;-37
2022/03/23 09:06:38;;;;;;;29.13;8.70;;;;;;;11.42;52.63;103213.16;5097964;27;126872;-36
2022/03/23 09:09:03;;;;;;;20.02;9.70;;;;;;;11.40;53.10;103206.88;5098628;27;97737;-37
2022/03/23 09:11:29;;;;;;;22.20;8.30;;;;;;;11.42;52.05;103207.72;5099014;27;96608;-37
2022/03/23 09:13:55;;;;;;;21.35;7.43;;;;;;;11.41;52.09;103203.22;5099503;27;96710;-36
2022/03/23 09:16:20;;;;;;;21.40;9.32;;;;;;;11.48;52.38;103212.97;5098910;27;97861;-37
2022/03/23 09:18:45;;;;;;;23.10;8.68;;;;;;;11.55;51.34;103218.25;5097832;27;127227;-36
2022/03/23 09:21:11;;;;;;;18.40;7.03;;;;;;;11.58;51.61;103208.19;5098403;27;96720;-36
2022/03/23 09:23:36;;;;;;;25.90;9.75;;;;;;;11.66;51.88;103216.13;5098888;27;96789;-36
2022/03/23 09:26:03;;;;;;;27.73;9.93;;;;;;;11.75;51.59;103214.97;5098443;27;99243;-36
2022/03/23 09:28:28;;;;;;;23.25;9.30;;;;;;;11.90;51.73;103223.59;5079856;27;101395;-37
2022/03/23 09:30:54;;;;;;;25.25;9.35;;;;;;;12.02;51.48;103221.47;5080197;27;96673;-37
2022/03/23 09:33:19;;;;;;;19.42;8.60;;;;;;;12.20;50.51;103225.44;5098545;27;96872;-37
2022/03/23 09:35:44;;;;;;;26.25;9.27;;;;;;;12.29;50.64;103215.19;5098258;27;99875;-36
2022/03/23 09:38:11;;;;;;;22.77;9.13;;;;;;;12.53;49.73;103218.09;5098834;27;97711;-37
2022/03/23 09:40:37;;;;;;;33.90;8.85;;;;;;;12.75;48.87;103208.31;5098669;27;96713;-36
2022/03/23 09:43:05;;;;;;;23.30;9.30;;;;;;;13.12;49.08;103227.94;5098730;27;96769;-36
2022/03/23 09:47:56;;;;;;;22.48;10.20;;;;;;;13.71;48.11;103219.53;5098150;27;97887;-37
2022/03/23 09:50:22;;;;;;;24.40;10.02;;;;;;;13.91;47.41;103216.06;5098864;27;96728;-36
2022/03/23 09:52:50;;;;;;;32.17;11.55;;;;;;;14.24;46.49;103208.41;5078970;27;96890;-37
2022/03/23 09:55:15;;;;;;;26.75;10.85;;;;;;;14.52;45.81;103206.47;5079484;27;100985;-36
2022/03/23 09:57:40;;;;;;;31.10;10.30;;;;;;;14.96;46.31;103225.59;5097207;27;126133;-36
2022/03/23 10:00:08;;;;;;;27.60;10.18;;;;;;;15.10;45.91;103201.31;5097328;27;116997;-36
2022/03/23 10:03:12;;;;;;;28.67;11.10;;;;;;;15.46;43.33;103206.13;5079864;27;97836;-36
2022/03/23 10:06:02;;;;;;;28.55;10.98;;;;;;;15.78;44.42;103215.66;5097419;27;99534;-37
2022/03/23 10:08:41;;;;;;;32.00;11.60;;;;;;;16.03;42.80;103215.38;5097491;27;98748;-36
2022/03/23 10:11:44;;;;;;;30.50;11.15;;;;;;;16.28;42.46;103216.97;5078915;27;96653;-36
2022/03/23 10:14:37;;;;;;;29.50;10.68;;;;;;;16.44;41.94;103226.22;5098149;27;96892;-36
2022/03/23 10:17:39;;;;;;;26.83;11.93;;;;;;;16.69;40.79;103217.69;5097711;27;97608;-37
2022/03/23 10:20:05;;;;;;;26.92;11.38;;;;;;;16.93;42.29;103203.78;5097857;27;97971;-36
2022/03/23 10:22:30;;;;;;;28.23;11.82;;;;;;;17.20;42.60;103206.94;5097612;27;102323;-36
2022/03/23 10:25:09;;;;;;;30.92;12.77;;;;;;;17.33;40.29;103215.44;5078289;27;96939;-36
2022/03/23 10:27:34;;;;;;;29.52;11.63;;;;;;;17.32;38.02;103210.91;5078956;27;100934;-36
2022/03/23 10:29:59;;;;;;;38.33;12.35;;;;;;;17.43;39.78;103204.88;5097938;27;97835;-36
2022/03/23 10:32:33;;;;;;;32.40;11.43;;;;;;;17.60;39.60;103202.09;5097326;27;96563;-36
2022/03/23 10:34:59;;;;;;;34.17;11.93;;;;;;;17.76;40.24;103197.56;5079202;27;96738;-36
2022/03/23 10:37:33;;;;;;;34.47;13.00;;;;;;;17.91;38.32;103205.97;5095986;27;125307;-36
2022/03/23 10:40:01;;;;;;;34.72;13.27;;;;;;;17.90;39.96;103198.69;5078730;27;100901;-36
2022/03/23 10:42:30;;;;;;;31.30;13.18;;;;;;;18.03;39.96;103189.69;5079073;27;96858;-36
2022/03/23 10:45:08;;;;;;;34.38;12.15;;;;;;;18.21;38.46;103193.28;5079039;27;96886;-37
2022/03/23 10:47:34;;;;;;;28.75;11.25;;;;;;;18.39;39.67;103198.69;5078708;27;99383;-37
2022/03/23 10:50:29;;;;;;;30.00;12.88;;;;;;;18.42;38.71;103196.69;5096940;27;101645;-36
2022/03/23 10:53:01;;;;;;;32.65;12.98;;;;;;;18.56;38.02;103198.59;5097159;27;96600;-36
2022/03/23 10:55:32;;;;;;;40.08;13.23;;;;;;;18.57;38.66;103189.41;5097695;27;96777;-36
2022/03/23 10:58:00;;;;;;;37.25;12.73;;;;;;;18.87;35.54;103203.22;5097392;27;97501;-36
2022/03/23 11:00:39;;;;;;;29.77;11.82;;;;;;;18.95;37.15;103197.28;5096700;27;104791;-36
2022/03/23 11:03:07;;;;;;;34.88;12.93;;;;;;;19.20;37.39;103198.56;5078043;27;96609;-36
2022/03/23 11:05:42;;;;;;;35.78;13.63;;;;;;;19.31;36.21;103185.94;5078325;27;96927;-37
2022/03/23 11:08:09;;;;;;;36.17;13.10;;;;;;;19.34;35.98;103198.59;5078172;27;98233;-36
2022/03/23 11:16:09;;;;;;;29.42;10.93;;;;;;;19.39;35.70;103190.06;5097753;27;96709;-36
2022/03/23 11:18:35;;;;;;;35.30;13.88;;;;;;;19.55;37.33;103198.25;5096738;27;98057;-36
2022/03/23 11:21:00;;;;;;;36.13;13.32;;;;;;;19.78;36.63;103191.31;5097243;27;97629;-36
2022/03/23 11:23:31;;;;;;;36.92;13.07;;;;;;;19.76;33.92;103198.78;5096442;27;111493;-36
2022/03/23 11:26:02;;;;;;;31.20;13.23;;;;;;;19.70;35.38;103198.19;5096876;27;96769;-36
2022/03/23 11:28:31;;;;;;;30.87;13.13;;;;;;;19.64;36.05;103184.81;5077349;27;101372;-36
2022/03/23 11:30:56;;;;;;;40.65;14.93;;;;;;;19.77;36.45;103192.31;5077660;27;100676;-36
2022/03/23 11:33:24;;;;;;;40.00;14.80;;;;;;;19.92;34.15;103192.22;5096493;27;96520;-35
2022/03/23 11:35:51;;;;;;;40.28;14.43;;;;;;;19.97;34.59;103193.78;5078032;27;96835;-36
2022/03/23 11:38:25;;;;;;;37.22;14.38;;;;;;;20.05;35.06;103189.56;5096314;27;98378;-36
2022/03/23 11:40:52;;;;;;;34.70;14.48;;;;;;;20.19;35.93;103187.78;5096613;27;97895;-36